createdAt,value
2023-03-27T00:00:45.516Z,4.83
2023-03-27T00:01:45.518Z,4.79
2023-03-27T00:02:45.512Z,4.75
2023-03-27T00:03:45.472Z,4.84
2023-03-27T00:04:45.398Z,4.79
2023-03-27T00:05:45.368Z,4.87
2023-03-27T00:06:45.342Z,4.82
2023-03-27T00:07:45.306Z,4.71
2023-03-27T00:08:45.279Z,4.83
2023-03-27T00:09:45.249Z,4.83
2023-03-27T00:10:45.218Z,4.79
2023-03-27T00:11:45.191Z,4.75
2023-03-27T00:12:45.171Z,4.79
2023-03-27T00:13:50.355Z,4.70
2023-03-27T00:14:45.103Z,4.68
2023-03-27T00:15:45.065Z,4.71
2023-03-27T00:16:45.075Z,4.74
2023-03-27T00:17:45.053Z,4.76
2023-03-27T00:18:45.077Z,4.78
2023-03-27T00:19:44.950Z,4.74
2023-03-27T00:20:44.917Z,4.79
2023-03-27T00:21:44.889Z,4.70
2023-03-27T00:22:44.859Z,4.75
2023-03-27T00:23:44.880Z,4.71
2023-03-27T00:24:44.796Z,4.71
2023-03-27T00:25:44.766Z,4.82
2023-03-27T00:26:44.736Z,4.78
2023-03-27T00:27:44.718Z,4.79
2023-03-27T00:28:44.701Z,4.76
2023-03-27T00:29:44.646Z,4.68
2023-03-27T00:30:44.646Z,4.76
2023-03-27T00:31:44.590Z,4.78
2023-03-27T00:32:44.616Z,4.79
2023-03-27T00:33:44.723Z,4.79
2023-03-27T00:34:44.493Z,4.61
2023-03-27T00:35:44.478Z,4.74
2023-03-27T00:36:44.432Z,4.68
2023-03-27T00:37:44.402Z,4.63
2023-03-27T00:38:44.374Z,4.68
2023-03-27T00:39:44.344Z,4.64
2023-03-27T00:40:44.350Z,4.60
2023-03-27T00:41:44.279Z,4.70
2023-03-27T00:42:44.250Z,4.66
2023-03-27T00:43:44.304Z,4.71
2023-03-27T00:44:44.191Z,4.74
2023-03-27T00:45:44.158Z,4.79
2023-03-27T00:46:44.182Z,4.71
2023-03-27T00:47:44.138Z,4.61
2023-03-27T00:48:44.078Z,4.60
2023-03-27T00:49:44.059Z,4.60
2023-03-27T00:50:44.012Z,4.60
2023-03-27T00:51:43.990Z,4.67
2023-03-27T00:52:43.948Z,4.66
2023-03-27T00:53:43.932Z,4.61
2023-03-27T00:54:43.888Z,4.74
2023-03-27T00:55:43.863Z,4.64
2023-03-27T00:56:43.850Z,4.70
2023-03-27T00:57:43.794Z,4.75
2023-03-27T00:58:43.770Z,4.71
2023-03-27T00:59:43.736Z,4.56
2023-03-27T01:00:43.710Z,4.57
2023-03-27T01:01:43.761Z,4.58
2023-03-27T01:02:43.798Z,4.57
2023-03-27T01:03:43.665Z,4.63
2023-03-27T01:04:43.591Z,4.56
2023-03-27T01:05:43.583Z,4.56
2023-03-27T01:06:43.526Z,4.64
2023-03-27T01:08:00.588Z,4.57
2023-03-27T01:08:43.465Z,4.68
2023-03-27T01:09:43.435Z,4.61
2023-03-27T01:10:43.407Z,4.64
2023-03-27T01:11:43.371Z,4.67
2023-03-27T01:12:43.352Z,4.66
2023-03-27T01:13:43.311Z,4.66
2023-03-27T01:14:43.286Z,4.68
2023-03-27T01:15:43.265Z,4.70
2023-03-27T01:16:43.220Z,4.66
2023-03-27T01:17:43.291Z,4.61
2023-03-27T01:18:43.158Z,4.64
2023-03-27T01:19:43.128Z,4.57
2023-03-27T01:20:43.104Z,4.64
2023-03-27T01:21:43.090Z,4.63
2023-03-27T01:22:43.040Z,4.58
2023-03-27T01:23:58.840Z,4.64
2023-03-27T01:24:42.981Z,4.58
2023-03-27T01:25:42.951Z,4.61
2023-03-27T01:26:42.917Z,4.58
2023-03-27T01:27:42.883Z,4.57
2023-03-27T01:28:42.858Z,4.63
2023-03-27T01:29:42.830Z,4.56
2023-03-27T01:30:42.798Z,4.57
2023-03-27T01:31:42.793Z,4.57
2023-03-27T01:32:42.770Z,4.63
2023-03-27T01:33:42.707Z,4.61
2023-03-27T01:34:42.680Z,4.63
2023-03-27T01:35:42.663Z,4.64
2023-03-27T01:36:42.621Z,4.63
2023-03-27T01:37:42.607Z,4.63
2023-03-27T01:38:42.571Z,4.61
2023-03-27T01:39:42.524Z,4.49
2023-03-27T01:40:42.496Z,4.48
2023-03-27T01:41:42.476Z,4.52
2023-03-27T01:42:42.435Z,4.63
2023-03-27T01:43:42.417Z,4.52
2023-03-27T01:44:44.462Z,4.63
2023-03-27T01:45:42.348Z,4.52
2023-03-27T01:46:42.366Z,4.50
2023-03-27T01:47:42.312Z,4.50
2023-03-27T01:48:42.260Z,4.52
2023-03-27T01:49:42.225Z,4.53
2023-03-27T01:50:42.197Z,4.48
2023-03-27T01:51:42.162Z,4.38
2023-03-27T01:52:42.135Z,4.42
2023-03-27T01:53:42.120Z,4.32
2023-03-27T01:54:42.079Z,4.32
2023-03-27T01:55:42.045Z,4.36
2023-03-27T01:56:42.041Z,4.32
2023-03-27T01:57:49.722Z,4.36
2023-03-27T01:58:41.960Z,4.39
2023-03-27T01:59:41.922Z,4.32
2023-03-27T02:01:04.023Z,4.38
2023-03-27T02:01:41.889Z,4.30
2023-03-27T02:02:41.890Z,4.38
2023-03-27T02:03:41.854Z,4.34
2023-03-27T02:04:41.812Z,4.31
2023-03-27T02:05:41.741Z,4.38
2023-03-27T02:06:41.721Z,4.22
2023-03-27T02:07:41.681Z,4.32
2023-03-27T02:08:41.654Z,4.27
2023-03-27T02:09:41.641Z,4.30
2023-03-27T02:10:41.615Z,4.16
2023-03-27T02:11:41.578Z,4.16
2023-03-27T02:12:41.534Z,4.21
2023-03-27T02:13:41.502Z,4.22
2023-03-27T02:14:41.474Z,4.20
2023-03-27T02:15:41.442Z,4.14
2023-03-27T02:16:41.487Z,4.16
2023-03-27T02:17:41.415Z,4.14
2023-03-27T02:18:41.353Z,4.14
2023-03-27T02:19:41.327Z,4.18
2023-03-27T02:20:41.294Z,4.14
2023-03-27T02:21:41.271Z,4.14
2023-03-27T02:22:41.236Z,4.13
2023-03-27T02:23:41.203Z,4.14
2023-03-27T02:24:41.182Z,4.20
2023-03-27T02:25:41.177Z,4.13
2023-03-27T02:26:41.112Z,4.13
2023-03-27T02:27:41.088Z,4.10
2023-03-27T02:28:41.052Z,4.14
2023-03-27T02:29:41.023Z,4.02
2023-03-27T02:30:40.992Z,4.18
2023-03-27T02:31:40.994Z,4.04
2023-03-27T02:32:41.046Z,4.04
2023-03-27T02:33:40.914Z,4.02
2023-03-27T02:34:40.871Z,4.03
2023-03-27T02:35:40.917Z,4.04
2023-03-27T02:36:40.811Z,4.02
2023-03-27T02:37:40.779Z,4.00
2023-03-27T02:38:40.751Z,4.03
2023-03-27T02:39:40.750Z,3.95
2023-03-27T02:40:40.688Z,3.99
2023-03-27T02:41:40.724Z,4.03
2023-03-27T02:42:40.634Z,3.89
2023-03-27T02:43:40.602Z,3.96
2023-03-27T02:44:46.551Z,3.95
2023-03-27T02:45:40.568Z,3.95
2023-03-27T02:46:40.525Z,4.02
2023-03-27T02:47:40.504Z,3.92
2023-03-27T02:48:40.456Z,3.99
2023-03-27T02:49:40.421Z,3.96
2023-03-27T02:50:40.392Z,4.00
2023-03-27T02:51:40.362Z,3.95
2023-03-27T02:52:40.329Z,3.92
2023-03-27T02:53:40.405Z,3.99
2023-03-27T02:54:40.278Z,3.96
2023-03-27T02:55:40.263Z,3.95
2023-03-27T02:56:40.231Z,3.92
2023-03-27T02:57:40.208Z,3.92
2023-03-27T02:58:40.155Z,3.92
2023-03-27T02:59:40.125Z,3.95
2023-03-27T03:00:40.092Z,3.92
2023-03-27T03:01:40.089Z,3.99
2023-03-27T03:02:40.110Z,3.88
2023-03-27T03:03:39.999Z,3.95
2023-03-27T03:04:39.969Z,3.92
2023-03-27T03:05:39.934Z,3.94
2023-03-27T03:06:39.907Z,3.86
2023-03-27T03:07:39.878Z,3.85
2023-03-27T03:08:39.848Z,3.86
2023-03-27T03:09:40.530Z,3.91
2023-03-27T03:10:39.785Z,3.89
2023-03-27T03:11:39.759Z,3.84
2023-03-27T03:12:39.733Z,3.85
2023-03-27T03:13:39.711Z,3.89
2023-03-27T03:14:39.667Z,3.85
2023-03-27T03:15:39.633Z,3.89
2023-03-27T03:16:39.715Z,3.82
2023-03-27T03:17:39.635Z,3.86
2023-03-27T03:18:39.543Z,3.78
2023-03-27T03:19:39.512Z,3.89
2023-03-27T03:20:39.487Z,3.89
2023-03-27T03:21:39.451Z,3.81
2023-03-27T03:22:39.421Z,3.81
2023-03-27T03:23:39.429Z,3.77
2023-03-27T03:24:39.359Z,3.76
2023-03-27T03:25:39.334Z,3.77
2023-03-27T03:26:39.300Z,3.76
2023-03-27T03:27:39.267Z,3.74
2023-03-27T03:28:39.241Z,3.76
2023-03-27T03:29:39.224Z,3.76
2023-03-27T03:30:39.229Z,3.84
2023-03-27T03:31:39.142Z,3.74
2023-03-27T03:32:39.131Z,3.66
2023-03-27T03:33:39.083Z,3.71
2023-03-27T03:34:39.057Z,3.76
2023-03-27T03:35:39.096Z,3.71
2023-03-27T03:36:38.996Z,3.71
2023-03-27T03:37:39.074Z,3.76
2023-03-27T03:38:38.931Z,3.76
2023-03-27T03:39:38.903Z,3.74
2023-03-27T03:40:38.880Z,3.71
2023-03-27T03:41:38.838Z,3.74
2023-03-27T03:42:38.809Z,3.76
2023-03-27T03:43:38.821Z,3.70
2023-03-27T03:44:38.767Z,3.78
2023-03-27T03:45:38.775Z,3.74
2023-03-27T03:46:38.724Z,3.67
2023-03-27T03:47:38.657Z,3.71
2023-03-27T03:48:38.628Z,3.73
2023-03-27T03:49:38.597Z,3.70
2023-03-27T03:50:38.562Z,3.67
2023-03-27T03:51:38.529Z,3.64
2023-03-27T03:52:38.502Z,3.64
2023-03-27T03:53:38.471Z,3.68
2023-03-27T03:54:38.439Z,3.73
2023-03-27T03:55:38.408Z,3.67
2023-03-27T03:56:38.384Z,3.73
2023-03-27T03:57:38.350Z,3.66
2023-03-27T03:58:38.314Z,3.73
2023-03-27T03:59:38.288Z,3.68
2023-03-27T04:00:38.255Z,3.71
2023-03-27T04:01:38.261Z,3.63
2023-03-27T04:02:38.306Z,3.64
2023-03-27T04:03:38.235Z,3.68
2023-03-27T04:04:38.128Z,3.63
2023-03-27T04:05:38.100Z,3.64
2023-03-27T04:06:38.065Z,3.64
2023-03-27T04:07:38.038Z,3.63
2023-03-27T04:08:38.051Z,3.63
2023-03-27T04:09:37.981Z,3.64
2023-03-27T04:10:37.948Z,3.64
2023-03-27T04:11:37.914Z,3.71
2023-03-27T04:12:37.884Z,3.74
2023-03-27T04:13:37.863Z,3.68
2023-03-27T04:14:37.821Z,3.64
2023-03-27T04:15:37.874Z,3.67
2023-03-27T04:16:37.760Z,3.53
2023-03-27T04:17:37.869Z,3.58
2023-03-27T04:18:37.761Z,3.59
2023-03-27T04:19:37.706Z,3.70
2023-03-27T04:20:37.653Z,3.61
2023-03-27T04:21:37.607Z,3.55
2023-03-27T04:22:37.573Z,3.56
2023-03-27T04:23:37.546Z,3.59
2023-03-27T04:24:37.517Z,3.55
2023-03-27T04:25:37.552Z,3.59
2023-03-27T04:26:37.450Z,3.56
2023-03-27T04:27:37.430Z,3.52
2023-03-27T04:28:37.394Z,3.55
2023-03-27T04:29:37.364Z,3.59
2023-03-27T04:30:37.334Z,3.55
2023-03-27T04:31:37.322Z,3.56
2023-03-27T04:32:37.291Z,3.52
2023-03-27T04:33:37.272Z,3.59
2023-03-27T04:34:37.213Z,3.50
2023-03-27T04:35:37.283Z,3.61
2023-03-27T04:36:37.193Z,3.49
2023-03-27T04:37:37.128Z,3.50
2023-03-27T04:38:37.283Z,3.59
2023-03-27T04:39:37.063Z,3.50
2023-03-27T04:40:37.032Z,3.53
2023-03-27T04:41:37.004Z,3.56
2023-03-27T04:42:36.972Z,3.56
2023-03-27T04:43:37.041Z,3.58
2023-03-27T04:44:37.062Z,3.56
2023-03-27T04:45:36.880Z,3.59
2023-03-27T04:46:36.903Z,3.50
2023-03-27T04:47:36.862Z,3.59
2023-03-27T04:48:36.786Z,3.64
2023-03-27T04:49:36.777Z,3.58
2023-03-27T04:50:36.727Z,3.70
2023-03-27T04:51:36.697Z,3.56
2023-03-27T04:52:36.668Z,3.61
2023-03-27T04:53:36.641Z,3.52
2023-03-27T04:54:36.613Z,3.67
2023-03-27T04:55:36.577Z,3.53
2023-03-27T04:56:36.565Z,3.53
2023-03-27T04:57:36.517Z,3.70
2023-03-27T04:58:37.462Z,3.64
2023-03-27T04:59:36.452Z,3.53
2023-03-27T05:00:36.433Z,3.52
2023-03-27T05:01:36.441Z,3.58
2023-03-27T05:02:36.381Z,3.59
2023-03-27T05:03:36.375Z,3.55
2023-03-27T05:04:36.303Z,3.58
2023-03-27T05:05:36.287Z,3.59
2023-03-27T05:06:36.748Z,3.55
2023-03-27T05:07:36.209Z,3.56
2023-03-27T05:08:36.189Z,3.59
2023-03-27T05:09:36.145Z,3.56
2023-03-27T05:10:36.116Z,3.53
2023-03-27T05:11:36.087Z,3.55
2023-03-27T05:12:36.053Z,3.56
2023-03-27T05:13:36.024Z,3.59
2023-03-27T05:14:35.986Z,3.52
2023-03-27T05:15:35.963Z,3.61
2023-03-27T05:16:36.215Z,3.59
2023-03-27T05:17:35.907Z,3.55
2023-03-27T05:18:35.867Z,3.53
2023-03-27T05:19:35.834Z,3.63
2023-03-27T05:20:35.805Z,3.52
2023-03-27T05:21:35.794Z,3.53
2023-03-27T05:22:35.741Z,3.73
2023-03-27T05:23:35.716Z,3.68
2023-03-27T05:24:35.683Z,3.56
2023-03-27T05:25:35.653Z,3.59
2023-03-27T05:26:36.932Z,3.53
2023-03-27T05:27:35.592Z,3.70
2023-03-27T05:28:35.561Z,3.49
2023-03-27T05:29:46.954Z,3.64
2023-03-27T05:30:35.561Z,3.53
2023-03-27T05:31:35.473Z,3.55
2023-03-27T05:32:35.509Z,3.67
2023-03-27T05:33:35.410Z,3.52
2023-03-27T05:34:35.372Z,3.61
2023-03-27T05:35:35.366Z,3.63
2023-03-27T05:36:35.313Z,3.64
2023-03-27T05:37:35.330Z,3.68
2023-03-27T05:38:35.253Z,3.64
2023-03-27T05:39:35.221Z,3.64
2023-03-27T05:40:35.190Z,3.67
2023-03-27T05:41:35.159Z,3.67
2023-03-27T05:42:35.127Z,3.74
2023-03-27T05:43:35.121Z,3.71
2023-03-27T05:44:35.101Z,3.67
2023-03-27T05:45:35.038Z,3.70
2023-03-27T05:46:35.069Z,3.67
2023-03-27T05:47:34.986Z,3.73
2023-03-27T05:48:34.941Z,3.68
2023-03-27T05:49:34.922Z,3.68
2023-03-27T05:50:34.886Z,3.64
2023-03-27T05:51:34.853Z,3.68
2023-03-27T05:52:34.820Z,3.76
2023-03-27T05:53:34.831Z,3.68
2023-03-27T05:54:34.758Z,3.76
2023-03-27T05:55:34.745Z,3.70
2023-03-27T05:56:34.838Z,3.73
2023-03-27T05:57:34.741Z,3.74
2023-03-27T05:58:34.640Z,3.74
2023-03-27T05:59:34.797Z,3.67
2023-03-27T06:00:34.575Z,3.76
2023-03-27T06:01:34.546Z,3.68
2023-03-27T06:02:34.576Z,3.67
2023-03-27T06:03:34.587Z,3.66
2023-03-27T06:04:34.518Z,3.73
2023-03-27T06:05:34.426Z,3.78
2023-03-27T06:06:34.421Z,3.76
2023-03-27T06:07:34.366Z,3.76
2023-03-27T06:08:34.349Z,3.63
2023-03-27T06:09:34.322Z,3.73
2023-03-27T06:10:34.274Z,3.66
2023-03-27T06:11:34.238Z,3.82
2023-03-27T06:12:34.210Z,3.71
2023-03-27T06:13:34.191Z,3.74
2023-03-27T06:14:34.148Z,3.85
2023-03-27T06:15:34.173Z,3.66
2023-03-27T06:16:34.206Z,3.76
2023-03-27T06:17:34.108Z,3.73
2023-03-27T06:18:34.030Z,3.74
2023-03-27T06:19:33.996Z,3.71
2023-03-27T06:20:33.964Z,3.76
2023-03-27T06:21:33.938Z,3.70
2023-03-27T06:22:33.909Z,3.81
2023-03-27T06:23:33.909Z,3.76
2023-03-27T06:24:33.845Z,3.76
2023-03-27T06:25:33.844Z,3.78
2023-03-27T06:26:33.785Z,3.86
2023-03-27T06:27:33.750Z,3.85
2023-03-27T06:28:33.724Z,3.86
2023-03-27T06:29:33.691Z,3.85
2023-03-27T06:30:33.659Z,3.86
2023-03-27T06:31:33.646Z,3.78
2023-03-27T06:32:33.607Z,3.85
2023-03-27T06:33:33.568Z,3.88
2023-03-27T06:34:33.544Z,3.99
2023-03-27T06:35:33.546Z,3.91
2023-03-27T06:36:33.474Z,3.82
2023-03-27T06:37:33.447Z,3.89
2023-03-27T06:38:33.416Z,3.92
2023-03-27T06:39:33.388Z,3.89
2023-03-27T06:40:33.357Z,4.04
2023-03-27T06:41:33.339Z,4.03
2023-03-27T06:42:33.296Z,3.92
2023-03-27T06:43:33.268Z,3.94
2023-03-27T06:44:33.229Z,3.96
2023-03-27T06:45:33.212Z,4.00
2023-03-27T06:46:44.564Z,4.00
2023-03-27T06:47:36.338Z,4.00
2023-03-27T06:48:33.155Z,3.95
2023-03-27T06:49:33.082Z,3.99
2023-03-27T06:50:33.176Z,4.02
2023-03-27T06:51:33.018Z,4.06
2023-03-27T06:52:32.988Z,4.02
2023-03-27T06:54:32.927Z,4.13
2023-03-27T06:55:32.900Z,4.12
2023-03-27T06:56:32.911Z,4.16
2023-03-27T06:57:32.871Z,4.14
2023-03-27T06:58:32.806Z,4.10
2023-03-27T06:59:32.775Z,4.14
2023-03-27T07:00:32.750Z,4.21
2023-03-27T07:01:32.758Z,4.18
2023-03-27T07:02:32.707Z,4.24
2023-03-27T07:03:32.664Z,4.32
2023-03-27T07:04:32.618Z,4.32
2023-03-27T07:05:32.627Z,4.25
2023-03-27T07:06:32.556Z,4.38
2023-03-27T07:07:32.526Z,4.32
2023-03-27T07:08:32.501Z,4.32
2023-03-27T07:09:32.463Z,4.36
2023-03-27T07:10:32.434Z,4.48
2023-03-27T07:11:32.420Z,4.48
2023-03-27T07:12:32.376Z,4.52
2023-03-27T07:13:32.482Z,4.45
2023-03-27T07:14:32.313Z,4.53
2023-03-27T07:15:32.281Z,4.52
2023-03-27T07:16:32.331Z,4.63
2023-03-27T07:17:45.517Z,4.60
2023-03-27T07:18:32.295Z,4.53
2023-03-27T07:19:32.164Z,4.66
2023-03-27T07:20:32.129Z,4.67
2023-03-27T07:21:32.139Z,4.57
2023-03-27T07:22:32.081Z,4.61
2023-03-27T07:23:32.040Z,4.57
2023-03-27T07:24:32.018Z,4.64
2023-03-27T07:25:31.979Z,4.75
2023-03-27T07:26:31.948Z,4.75
2023-03-27T07:27:31.920Z,4.78
2023-03-27T07:28:31.883Z,4.71
2023-03-27T07:29:31.878Z,4.84
2023-03-27T07:30:31.823Z,4.76
2023-03-27T07:31:54.881Z,4.79
2023-03-27T07:32:37.294Z,4.79
2023-03-27T07:33:31.913Z,4.82
2023-03-27T07:34:31.703Z,4.86
2023-03-27T07:35:31.689Z,4.82
2023-03-27T07:36:31.653Z,4.82
2023-03-27T07:37:31.614Z,4.86
2023-03-27T07:38:31.591Z,4.78
2023-03-27T07:39:31.610Z,4.89
2023-03-27T07:40:39.330Z,4.94
2023-03-27T07:41:31.545Z,4.97
2023-03-27T07:42:31.464Z,4.89
2023-03-27T07:43:31.432Z,4.87
2023-03-27T07:44:31.402Z,4.94
2023-03-27T07:45:31.417Z,4.92
2023-03-27T07:46:31.340Z,4.98
2023-03-27T07:47:31.345Z,4.98
2023-03-27T07:48:31.292Z,4.98
2023-03-27T07:49:39.211Z,4.98
2023-03-27T07:50:31.225Z,4.92
2023-03-27T07:51:31.197Z,4.98
2023-03-27T07:52:31.163Z,4.97
2023-03-27T07:53:33.237Z,5.00
2023-03-27T07:54:31.101Z,4.94
2023-03-27T07:55:31.081Z,4.97
2023-03-27T07:56:31.043Z,5.10
2023-03-27T07:57:33.170Z,5.12
2023-03-27T07:58:31.034Z,5.13
2023-03-27T07:59:31.053Z,5.07
2023-03-27T08:00:30.935Z,5.05
2023-03-27T08:01:30.922Z,5.12
2023-03-27T08:02:30.896Z,5.10
2023-03-27T08:03:31.024Z,5.05
2023-03-27T08:04:30.882Z,5.08
2023-03-27T08:05:30.776Z,5.04
2023-03-27T08:06:30.753Z,5.20
2023-03-27T08:07:30.715Z,5.18
2023-03-27T08:08:30.709Z,5.20
2023-03-27T08:09:30.657Z,5.20
2023-03-27T08:10:30.655Z,5.20
2023-03-27T08:11:31.229Z,5.19
2023-03-27T08:12:30.570Z,5.23
2023-03-27T08:13:30.575Z,5.28
2023-03-27T08:14:30.553Z,5.26
2023-03-27T08:15:30.480Z,5.26
2023-03-27T08:16:30.547Z,5.28
2023-03-27T08:17:30.552Z,5.28
2023-03-27T08:18:30.506Z,5.31
2023-03-27T08:19:30.393Z,5.37
2023-03-27T08:20:30.368Z,5.43
2023-03-27T08:21:30.400Z,5.41
2023-03-27T08:22:30.301Z,5.52
2023-03-27T08:23:30.311Z,5.54
2023-03-27T08:24:30.227Z,5.52
2023-03-27T08:25:30.228Z,5.56
2023-03-27T08:26:30.244Z,5.69
2023-03-27T08:27:30.129Z,5.64
2023-03-27T08:28:30.079Z,5.69
2023-03-27T08:29:30.101Z,5.73
2023-03-27T08:30:30.134Z,5.74
2023-03-27T08:31:30.074Z,5.74
2023-03-27T08:32:30.049Z,5.77
2023-03-27T08:33:29.947Z,5.83
2023-03-27T08:34:29.929Z,5.77
2023-03-27T08:35:30.082Z,5.83
2023-03-27T08:36:29.837Z,5.83
2023-03-27T08:37:29.821Z,5.77
2023-03-27T08:38:29.813Z,5.81
2023-03-27T08:39:29.861Z,5.79
2023-03-27T08:40:29.741Z,5.84
2023-03-27T08:41:29.714Z,5.83
2023-03-27T08:42:29.774Z,5.81
2023-03-27T08:43:29.737Z,5.84
2023-03-27T08:44:29.942Z,5.73
2023-03-27T08:45:29.613Z,5.79
2023-03-27T08:46:29.600Z,5.79
2023-03-27T08:47:29.595Z,5.79
2023-03-27T08:48:29.493Z,5.87
2023-03-27T08:49:29.506Z,5.88
2023-03-27T08:50:29.503Z,5.87
2023-03-27T08:51:29.423Z,5.94
2023-03-27T08:52:29.415Z,6.02
2023-03-27T08:53:29.653Z,6.07
2023-03-27T08:54:29.300Z,5.98
2023-03-27T08:55:29.273Z,6.01
2023-03-27T08:56:29.243Z,6.01
2023-03-27T08:57:29.215Z,5.98
2023-03-27T08:58:29.185Z,6.07
2023-03-27T08:59:29.153Z,6.09
2023-03-27T09:00:29.125Z,6.07
2023-03-27T09:01:29.106Z,6.12
2023-03-27T09:02:29.201Z,6.09
2023-03-27T09:03:29.156Z,6.12
2023-03-27T09:04:29.008Z,6.06
2023-03-27T09:05:28.994Z,6.12
2023-03-27T09:06:28.947Z,6.13
2023-03-27T09:07:28.915Z,6.15
2023-03-27T09:08:28.891Z,6.06
2023-03-27T09:09:28.863Z,6.07
2023-03-27T09:10:28.851Z,6.15
2023-03-27T09:11:28.810Z,6.06
2023-03-27T09:12:28.769Z,6.15
2023-03-27T09:13:28.763Z,6.16
2023-03-27T09:14:28.713Z,6.26
2023-03-27T09:15:28.679Z,6.31
2023-03-27T09:16:28.727Z,6.28
2023-03-27T09:17:28.654Z,6.34
2023-03-27T09:18:28.600Z,6.31
2023-03-27T09:19:28.561Z,6.29
2023-03-27T09:20:28.540Z,6.35
2023-03-27T09:21:28.523Z,6.35
2023-03-27T09:22:28.481Z,6.29
2023-03-27T09:23:28.447Z,6.32
2023-03-27T09:24:28.413Z,6.25
2023-03-27T09:25:28.386Z,6.17
2023-03-27T09:26:28.366Z,6.26
2023-03-27T09:27:28.327Z,6.35
2023-03-27T09:28:28.294Z,6.35
2023-03-27T09:29:28.266Z,6.50
2023-03-27T09:30:28.235Z,6.39
2023-03-27T09:31:28.238Z,6.49
2023-03-27T09:32:28.228Z,6.39
2023-03-27T09:33:28.150Z,6.49
2023-03-27T09:34:28.119Z,6.64
2023-03-27T09:35:28.113Z,6.56
2023-03-27T09:36:28.066Z,6.57
2023-03-27T09:37:28.165Z,6.68
2023-03-27T09:38:28.011Z,6.60
2023-03-27T09:39:27.977Z,6.54
2023-03-27T09:40:27.954Z,6.54
2023-03-27T09:41:27.919Z,6.52
2023-03-27T09:42:27.886Z,6.54
2023-03-27T09:43:27.865Z,6.60
2023-03-27T09:44:27.838Z,6.71
2023-03-27T09:45:27.800Z,6.65
2023-03-27T09:46:27.784Z,6.65
2023-03-27T09:47:27.752Z,6.74
2023-03-27T09:48:27.720Z,6.87
2023-03-27T09:49:27.715Z,6.86
2023-03-27T09:50:27.967Z,6.92
2023-03-27T09:51:27.625Z,6.95
2023-03-27T09:52:27.593Z,7.00
2023-03-27T09:53:27.584Z,7.00
2023-03-27T09:54:27.699Z,6.93
2023-03-27T09:55:27.521Z,6.92
2023-03-27T09:56:27.482Z,7.03
2023-03-27T09:57:27.448Z,7.18
2023-03-27T09:58:27.420Z,7.28
2023-03-27T09:59:27.397Z,7.41
2023-03-27T10:00:27.372Z,7.56
2023-03-27T10:01:27.396Z,7.56
2023-03-27T10:02:27.411Z,7.61
2023-03-27T10:03:27.347Z,7.67
2023-03-27T10:04:27.249Z,7.55
2023-03-27T10:05:27.217Z,7.72
2023-03-27T10:06:27.198Z,7.85
2023-03-27T10:07:27.163Z,7.78
2023-03-27T10:08:27.557Z,8.01
2023-03-27T10:09:27.118Z,8.09
2023-03-27T10:10:27.080Z,8.18
2023-03-27T10:11:27.053Z,8.23
2023-03-27T10:12:27.018Z,8.24
2023-03-27T10:13:26.987Z,8.31
2023-03-27T10:14:26.968Z,8.24
2023-03-27T10:15:26.983Z,8.14
2023-03-27T10:16:26.952Z,8.14
2023-03-27T10:17:26.895Z,8.11
2023-03-27T10:18:26.846Z,7.99
2023-03-27T10:19:26.818Z,8.14
2023-03-27T10:20:26.793Z,8.31
2023-03-27T10:21:26.764Z,8.24
2023-03-27T10:22:26.740Z,8.34
2023-03-27T10:23:26.749Z,8.27
2023-03-27T10:24:26.707Z,8.20
2023-03-27T10:25:26.674Z,8.09
2023-03-27T10:26:26.631Z,8.06
2023-03-27T10:27:26.591Z,8.08
2023-03-27T10:28:26.567Z,8.09
2023-03-27T10:29:26.551Z,8.03
2023-03-27T10:30:26.511Z,7.90
2023-03-27T10:31:26.504Z,7.90
2023-03-27T10:32:26.468Z,7.96
2023-03-27T10:33:26.422Z,7.84
2023-03-27T10:34:26.395Z,7.85
2023-03-27T10:35:26.420Z,7.84
2023-03-27T10:36:26.338Z,7.75
2023-03-27T10:37:26.314Z,7.74
2023-03-27T10:38:26.286Z,7.70
2023-03-27T10:39:26.251Z,7.67
2023-03-27T10:40:26.233Z,7.70
2023-03-27T10:41:28.442Z,7.58
2023-03-27T10:42:26.174Z,7.48
2023-03-27T10:43:26.140Z,7.53
2023-03-27T10:44:26.129Z,7.64
2023-03-27T10:45:26.084Z,7.70
2023-03-27T10:46:26.123Z,7.88
2023-03-27T10:47:26.052Z,7.78
2023-03-27T10:48:26.001Z,7.87
2023-03-27T10:49:25.975Z,7.91
2023-03-27T10:50:25.942Z,7.93
2023-03-27T10:51:33.100Z,7.93
2023-03-27T10:52:25.888Z,8.09
2023-03-27T10:53:25.895Z,8.06
2023-03-27T10:54:25.904Z,8.13
2023-03-27T10:55:25.801Z,7.93
2023-03-27T10:56:25.779Z,7.90
2023-03-27T10:57:25.771Z,7.78
2023-03-27T10:58:25.716Z,7.67
2023-03-27T10:59:38.351Z,7.64
2023-03-27T11:00:25.665Z,7.64
2023-03-27T11:01:25.665Z,7.62
2023-03-27T11:02:25.674Z,7.61
2023-03-27T11:03:25.621Z,7.72
2023-03-27T11:04:25.548Z,7.87
2023-03-27T11:05:25.529Z,7.95
2023-03-27T11:06:25.558Z,8.03
2023-03-27T11:07:25.478Z,8.05
2023-03-27T11:08:25.450Z,8.20
2023-03-27T11:09:25.405Z,8.26
2023-03-27T11:10:25.394Z,8.42
2023-03-27T11:11:25.348Z,8.54
2023-03-27T11:12:25.321Z,8.64
2023-03-27T11:13:25.329Z,8.68
2023-03-27T11:14:25.301Z,8.50
2023-03-27T11:15:25.302Z,8.38
2023-03-27T11:16:25.246Z,8.31
2023-03-27T11:17:25.233Z,8.23
2023-03-27T11:18:25.155Z,8.13
2023-03-27T11:19:25.133Z,8.08
2023-03-27T11:20:26.429Z,7.81
2023-03-27T11:21:25.077Z,7.51
2023-03-27T11:22:25.157Z,7.07
2023-03-27T11:23:25.024Z,6.50
2023-03-27T11:24:25.000Z,6.15
2023-03-27T11:25:25.040Z,5.79
2023-03-27T11:26:24.955Z,5.25
2023-03-27T11:27:24.972Z,5.08
2023-03-27T11:28:24.871Z,4.87
2023-03-27T11:29:24.867Z,4.82
2023-03-27T11:30:24.829Z,4.76
2023-03-27T11:31:24.812Z,4.58
2023-03-27T11:32:24.758Z,4.57
2023-03-27T11:33:24.722Z,4.61
2023-03-27T11:34:29.067Z,4.67
2023-03-27T11:35:24.678Z,4.78
2023-03-27T11:36:24.638Z,4.64
2023-03-27T11:37:24.604Z,4.63
2023-03-27T11:38:24.576Z,4.68
2023-03-27T11:39:24.550Z,4.64
2023-03-27T11:40:24.541Z,4.78
2023-03-27T11:41:24.494Z,4.90
2023-03-27T11:42:24.459Z,4.97
2023-03-27T11:43:24.448Z,4.98
2023-03-27T11:44:24.396Z,5.01
2023-03-27T11:45:24.389Z,5.08
2023-03-27T11:46:24.476Z,5.16
2023-03-27T11:47:24.308Z,5.10
2023-03-27T11:48:24.279Z,5.20
2023-03-27T11:49:24.249Z,5.29
2023-03-27T11:50:24.220Z,5.31
2023-03-27T11:51:24.205Z,5.33
2023-03-27T11:52:24.159Z,5.46
2023-03-27T11:53:24.138Z,5.41
2023-03-27T11:54:24.101Z,5.41
2023-03-27T11:55:24.075Z,5.51
2023-03-27T11:56:24.038Z,5.47
2023-03-27T11:57:24.011Z,5.67
2023-03-27T11:58:24.050Z,5.59
2023-03-27T11:59:23.948Z,5.62
2023-03-27T12:00:23.920Z,5.62
2023-03-27T12:01:23.912Z,5.69
2023-03-27T12:02:23.886Z,5.64
2023-03-27T12:03:23.904Z,5.73
2023-03-27T12:04:23.945Z,5.67
2023-03-27T12:05:23.766Z,5.74
2023-03-27T12:06:23.741Z,5.81
2023-03-27T12:07:35.462Z,5.87
2023-03-27T12:08:23.692Z,5.91
2023-03-27T12:09:23.649Z,5.94
2023-03-27T12:10:28.540Z,5.97
2023-03-27T12:11:23.589Z,6.10
2023-03-27T12:12:23.561Z,6.07
2023-03-27T12:13:28.724Z,6.06
2023-03-27T12:15:23.468Z,6.12
2023-03-27T12:16:23.475Z,6.15
2023-03-27T12:17:23.600Z,6.13
2023-03-27T12:18:27.437Z,6.25
2023-03-27T12:19:29.759Z,6.28
2023-03-27T12:20:23.324Z,6.31
2023-03-27T12:21:23.293Z,6.38
2023-03-27T12:22:24.262Z,6.49
2023-03-27T12:23:23.231Z,6.54
2023-03-27T12:24:23.220Z,6.65
2023-03-27T12:25:23.182Z,6.70
2023-03-27T12:26:23.141Z,6.68
2023-03-27T12:27:23.120Z,6.57
2023-03-27T12:28:23.665Z,6.75
2023-03-27T12:29:24.502Z,6.80
2023-03-27T12:30:23.026Z,6.83
2023-03-27T12:31:23.072Z,6.95
2023-03-27T12:32:22.984Z,6.96
2023-03-27T12:33:22.959Z,7.01
2023-03-27T12:34:22.903Z,7.13
2023-03-27T12:35:22.934Z,7.14
2023-03-27T12:36:22.847Z,7.21
2023-03-27T12:37:22.818Z,7.19
2023-03-27T12:38:22.792Z,7.21
2023-03-27T12:39:22.765Z,7.14
2023-03-27T12:40:22.736Z,7.14
2023-03-27T12:41:22.702Z,7.08
2023-03-27T12:42:22.671Z,6.96
2023-03-27T12:43:22.649Z,6.92
2023-03-27T12:44:22.677Z,6.85
2023-03-27T12:45:22.612Z,6.80
2023-03-27T12:46:22.596Z,6.65
2023-03-27T12:47:22.544Z,6.50
2023-03-27T12:48:22.507Z,6.26
2023-03-27T12:49:22.492Z,6.07
2023-03-27T12:50:22.552Z,5.98
2023-03-27T12:51:22.410Z,6.01
2023-03-27T12:52:22.383Z,5.99
2023-03-27T12:53:22.354Z,5.95
2023-03-27T12:54:22.320Z,5.99
2023-03-27T12:55:22.292Z,6.05
2023-03-27T12:56:22.344Z,6.01
2023-03-27T12:57:22.432Z,5.97
2023-03-27T12:58:22.246Z,5.97
2023-03-27T12:59:22.188Z,6.01
2023-03-27T13:00:22.163Z,6.07
2023-03-27T13:01:22.151Z,6.15
2023-03-27T13:02:22.150Z,6.09
2023-03-27T13:03:22.145Z,6.10
2023-03-27T13:04:22.028Z,5.95
2023-03-27T13:05:27.285Z,5.99
2023-03-27T13:06:21.969Z,5.99
2023-03-27T13:07:21.941Z,5.95
2023-03-27T13:08:21.947Z,5.99
2023-03-27T13:09:21.883Z,6.05
2023-03-27T13:10:21.851Z,5.95
2023-03-27T13:11:21.829Z,6.09
2023-03-27T13:12:21.796Z,6.25
2023-03-27T13:13:21.787Z,6.25
2023-03-27T13:14:21.739Z,6.26
2023-03-27T13:15:21.708Z,6.28
2023-03-27T13:16:21.734Z,6.32
2023-03-27T13:17:21.650Z,6.35
2023-03-27T13:18:21.627Z,6.22
2023-03-27T13:19:21.592Z,6.49
2023-03-27T13:20:21.571Z,6.46